sensor_id;sensor_type;location;lat;lon;timestamp;temperature;humidity
74923;HTU21D;64715;44.760;37.678;2023-07-24T00:00:10;22.39;82.78
74923;HTU21D;64715;44.760;37.678;2023-07-24T00:01:11;22.40;82.91
74923;HTU21D;64715;44.760;37.678;2023-07-24T00:02:13;22.38;82.84
74923;HTU21D;64715;44.760;37.678;2023-07-24T00:03:15;22.39;82.84
74923;HTU21D;64715;44.760;37.678;2023-07-24T00:04:16;22.38;82.80
74923;HTU21D;64715;44.760;37.678;2023-07-24T00:05:17;22.38;82.92
74923;HTU21D;64715;44.760;37.678;2023-07-24T00:06:18;22.37;82.80
74923;HTU21D;64715;44.760;37.678;2023-07-24T00:07:19;22.36;82.82
74923;HTU21D;64715;44.760;37.678;2023-07-24T00:08:20;22.35;82.89
74923;HTU21D;64715;44.760;37.678;2023-07-24T00:09:21;22.34;82.75
74923;HTU21D;64715;44.760;37.678;2023-07-24T00:10:22;22.32;82.75
74923;HTU21D;64715;44.760;37.678;2023-07-24T00:11:24;22.33;82.91
74923;HTU21D;64715;44.760;37.678;2023-07-24T00:12:25;22.31;82.71
74923;HTU21D;64715;44.760;37.678;2023-07-24T00:13:26;22.31;82.92
74923;HTU21D;64715;44.760;37.678;2023-07-24T00:14:27;22.28;82.89
74923;HTU21D;64715;44.760;37.678;2023-07-24T00:15:28;22.28;82.78
74923;HTU21D;64715;44.760;37.678;2023-07-24T00:16:29;22.26;82.90
74923;HTU21D;64715;44.760;37.678;2023-07-24T00:17:30;22.26;82.87
74923;HTU21D;64715;44.760;37.678;2023-07-24T00:18:32;22.24;82.94
74923;HTU21D;64715;44.760;37.678;2023-07-24T00:19:33;22.24;82.91
74923;HTU21D;64715;44.760;37.678;2023-07-24T00:20:33;22.24;82.91
74923;HTU21D;64715;44.760;37.678;2023-07-24T00:21:35;22.23;82.94
74923;HTU21D;64715;44.760;37.678;2023-07-24T00:22:36;22.23;83.04
74923;HTU21D;64715;44.760;37.678;2023-07-24T00:23:37;22.23;82.98
74923;HTU21D;64715;44.760;37.678;2023-07-24T00:24:39;22.21;82.95
74923;HTU21D;64715;44.760;37.678;2023-07-24T00:25:40;22.22;83.03
74923;HTU21D;64715;44.760;37.678;2023-07-24T00:26:41;22.22;83.00
74923;HTU21D;64715;44.760;37.678;2023-07-24T00:27:42;22.21;82.89
74923;HTU21D;64715;44.760;37.678;2023-07-24T00:28:43;22.22;82.85
74923;HTU21D;64715;44.760;37.678;2023-07-24T00:29:44;22.22;82.85
74923;HTU21D;64715;44.760;37.678;2023-07-24T00:30:45;22.21;82.93
74923;HTU21D;64715;44.760;37.678;2023-07-24T00:31:47;22.22;82.84
74923;HTU21D;64715;44.760;37.678;2023-07-24T00:32:47;22.23;82.72
74923;HTU21D;64715;44.760;37.678;2023-07-24T00:33:48;22.23;82.84
74923;HTU21D;64715;44.760;37.678;2023-07-24T00:34:49;22.23;82.81
74923;HTU21D;64715;44.760;37.678;2023-07-24T00:35:55;22.23;82.80
74923;HTU21D;64715;44.760;37.678;2023-07-24T00:36:57;22.25;82.66
74923;HTU21D;64715;44.760;37.678;2023-07-24T00:37:58;22.25;82.67
74923;HTU21D;64715;44.760;37.678;2023-07-24T00:39:00;22.25;82.62
74923;HTU21D;64715;44.760;37.678;2023-07-24T00:40:02;22.25;82.65
74923;HTU21D;64715;44.760;37.678;2023-07-24T00:41:03;22.25;82.50
74923;HTU21D;64715;44.760;37.678;2023-07-24T00:42:04;22.26;82.40
74923;HTU21D;64715;44.760;37.678;2023-07-24T00:43:05;22.29;82.36
74923;HTU21D;64715;44.760;37.678;2023-07-24T00:44:06;22.29;82.41
74923;HTU21D;64715;44.760;37.678;2023-07-24T00:45:08;22.29;82.33
74923;HTU21D;64715;44.760;37.678;2023-07-24T00:46:11;22.31;82.29
74923;HTU21D;64715;44.760;37.678;2023-07-24T00:47:12;22.33;82.31
74923;HTU21D;64715;44.760;37.678;2023-07-24T00:48:14;22.33;82.15
74923;HTU21D;64715;44.760;37.678;2023-07-24T00:49:16;22.35;82.07
74923;HTU21D;64715;44.760;37.678;2023-07-24T00:50:17;22.34;82.07
74923;HTU21D;64715;44.760;37.678;2023-07-24T00:51:18;22.34;81.99
74923;HTU21D;64715;44.760;37.678;2023-07-24T00:52:19;22.36;81.97
74923;HTU21D;64715;44.760;37.678;2023-07-24T00:53:20;22.35;81.86
74923;HTU21D;64715;44.760;37.678;2023-07-24T00:54:22;22.36;81.75
74923;HTU21D;64715;44.760;37.678;2023-07-24T00:55:25;22.36;81.69
74923;HTU21D;64715;44.760;37.678;2023-07-24T00:56:26;22.36;81.68
74923;HTU21D;64715;44.760;37.678;2023-07-24T00:57:29;22.37;81.72
74923;HTU21D;64715;44.760;37.678;2023-07-24T00:58:30;22.35;81.59
74923;HTU21D;64715;44.760;37.678;2023-07-24T00:59:32;22.35;81.52
74923;HTU21D;64715;44.760;37.678;2023-07-24T01:00:33;22.35;81.46
74923;HTU21D;64715;44.760;37.678;2023-07-24T01:01:37;22.34;81.53
74923;HTU21D;64715;44.760;37.678;2023-07-24T01:02:38;22.34;81.46
74923;HTU21D;64715;44.760;37.678;2023-07-24T01:03:39;22.32;81.34
74923;HTU21D;64715;44.760;37.678;2023-07-24T01:04:40;22.32;81.29
74923;HTU21D;64715;44.760;37.678;2023-07-24T01:05:41;22.29;81.31
74923;HTU21D;64715;44.760;37.678;2023-07-24T01:06:42;22.27;81.16
74923;HTU21D;64715;44.760;37.678;2023-07-24T01:07:44;22.26;81.22
74923;HTU21D;64715;44.760;37.678;2023-07-24T01:08:45;22.24;81.20
74923;HTU21D;64715;44.760;37.678;2023-07-24T01:09:46;22.23;81.10
74923;HTU21D;64715;44.760;37.678;2023-07-24T01:10:48;22.20;81.14
74923;HTU21D;64715;44.760;37.678;2023-07-24T01:11:57;22.18;81.12
74923;HTU21D;64715;44.760;37.678;2023-07-24T01:13:07;22.16;81.25
74923;HTU21D;64715;44.760;37.678;2023-07-24T01:14:23;22.12;81.21
74923;HTU21D;64715;44.760;37.678;2023-07-24T01:16:36;22.07;81.46
74923;HTU21D;64715;44.760;37.678;2023-07-24T01:17:42;22.06;81.67
74923;HTU21D;64715;44.760;37.678;2023-07-24T01:18:44;22.04;81.71
74923;HTU21D;64715;44.760;37.678;2023-07-24T01:19:50;22.02;81.76
74923;HTU21D;64715;44.760;37.678;2023-07-24T01:20:56;22.02;81.90
74923;HTU21D;64715;44.760;37.678;2023-07-24T01:26:11;21.91;82.13
74923;HTU21D;64715;44.760;37.678;2023-07-24T01:27:07;21.87;82.14
74923;HTU21D;64715;44.760;37.678;2023-07-24T01:28:08;21.87;82.15
74923;HTU21D;64715;44.760;37.678;2023-07-24T01:29:09;21.84;82.46
74923;HTU21D;64715;44.760;37.678;2023-07-24T01:30:11;21.82;82.46
74923;HTU21D;64715;44.760;37.678;2023-07-24T01:31:12;21.82;82.44
74923;HTU21D;64715;44.760;37.678;2023-07-24T01:32:18;21.79;82.70
74923;HTU21D;64715;44.760;37.678;2023-07-24T01:33:20;21.78;82.71
74923;HTU21D;64715;44.760;37.678;2023-07-24T01:34:21;21.78;82.68
74923;HTU21D;64715;44.760;37.678;2023-07-24T01:35:23;21.76;82.78
74923;HTU21D;64715;44.760;37.678;2023-07-24T01:36:24;21.75;82.72
74923;HTU21D;64715;44.760;37.678;2023-07-24T01:37:25;21.74;82.75
74923;HTU21D;64715;44.760;37.678;2023-07-24T01:38:27;21.73;82.82
74923;HTU21D;64715;44.760;37.678;2023-07-24T01:39:29;21.73;82.95
74923;HTU21D;64715;44.760;37.678;2023-07-24T01:40:31;21.72;82.87
74923;HTU21D;64715;44.760;37.678;2023-07-24T01:41:32;21.69;82.84
74923;HTU21D;64715;44.760;37.678;2023-07-24T01:42:34;21.68;82.94
74923;HTU21D;64715;44.760;37.678;2023-07-24T01:43:36;21.67;82.99
74923;HTU21D;64715;44.760;37.678;2023-07-24T01:44:37;21.65;83.03
74923;HTU21D;64715;44.760;37.678;2023-07-24T01:45:38;21.64;83.10
74923;HTU21D;64715;44.760;37.678;2023-07-24T01:46:40;21.64;83.07
74923;HTU21D;64715;44.760;37.678;2023-07-24T01:47:41;21.62;83.05
74923;HTU21D;64715;44.760;37.678;2023-07-24T01:48:43;21.62;83.09
74923;HTU21D;64715;44.760;37.678;2023-07-24T01:49:43;21.62;83.08
74923;HTU21D;64715;44.760;37.678;2023-07-24T01:50:44;21.61;83.16
74923;HTU21D;64715;44.760;37.678;2023-07-24T01:51:46;21.61;83.18
74923;HTU21D;64715;44.760;37.678;2023-07-24T01:52:47;21.60;83.16
74923;HTU21D;64715;44.760;37.678;2023-07-24T01:53:48;21.59;83.16
74923;HTU21D;64715;44.760;37.678;2023-07-24T01:54:49;21.59;83.18
74923;HTU21D;64715;44.760;37.678;2023-07-24T01:55:50;21.58;83.10
74923;HTU21D;64715;44.760;37.678;2023-07-24T01:56:52;21.58;83.27
74923;HTU21D;64715;44.760;37.678;2023-07-24T01:57:53;21.55;83.23
74923;HTU21D;64715;44.760;37.678;2023-07-24T01:58:54;21.57;83.17
74923;HTU21D;64715;44.760;37.678;2023-07-24T01:59:55;21.55;83.18
74923;HTU21D;64715;44.760;37.678;2023-07-24T02:00:57;21.54;83.13
74923;HTU21D;64715;44.760;37.678;2023-07-24T02:01:58;21.55;83.23
74923;HTU21D;64715;44.760;37.678;2023-07-24T02:02:59;21.54;83.10
74923;HTU21D;64715;44.760;37.678;2023-07-24T02:04:01;21.53;83.07
74923;HTU21D;64715;44.760;37.678;2023-07-24T02:05:02;21.54;83.12
74923;HTU21D;64715;44.760;37.678;2023-07-24T02:06:04;21.54;83.10
74923;HTU21D;64715;44.760;37.678;2023-07-24T02:07:05;21.53;83.16
74923;HTU21D;64715;44.760;37.678;2023-07-24T02:08:45;21.53;82.93
74923;HTU21D;64715;44.760;37.678;2023-07-24T02:09:50;21.51;82.97
74923;HTU21D;64715;44.760;37.678;2023-07-24T02:10:51;21.52;82.97
74923;HTU21D;64715;44.760;37.678;2023-07-24T02:11:52;21.52;83.04
74923;HTU21D;64715;44.760;37.678;2023-07-24T02:12:53;21.52;82.99
74923;HTU21D;64715;44.760;37.678;2023-07-24T02:13:54;21.53;82.97
74923;HTU21D;64715;44.760;37.678;2023-07-24T02:14:55;21.53;83.13
74923;HTU21D;64715;44.760;37.678;2023-07-24T02:15:57;21.53;83.13
74923;HTU21D;64715;44.760;37.678;2023-07-24T02:16:58;21.55;83.10
74923;HTU21D;64715;44.760;37.678;2023-07-24T02:17:59;21.57;83.09
74923;HTU21D;64715;44.760;37.678;2023-07-24T02:19:00;21.59;83.10
74923;HTU21D;64715;44.760;37.678;2023-07-24T02:20:01;21.60;83.00
74923;HTU21D;64715;44.760;37.678;2023-07-24T02:21:16;21.62;83.04
74923;HTU21D;64715;44.760;37.678;2023-07-24T02:22:17;21.64;83.01
74923;HTU21D;64715;44.760;37.678;2023-07-24T02:23:18;21.65;83.10
74923;HTU21D;64715;44.760;37.678;2023-07-24T02:24:18;21.68;82.97
74923;HTU21D;64715;44.760;37.678;2023-07-24T02:25:19;21.69;82.91
74923;HTU21D;64715;44.760;37.678;2023-07-24T02:26:20;21.72;82.91
74923;HTU21D;64715;44.760;37.678;2023-07-24T02:27:30;21.77;82.97
74923;HTU21D;64715;44.760;37.678;2023-07-24T02:28:35;21.80;82.96
74923;HTU21D;64715;44.760;37.678;2023-07-24T02:29:35;21.85;82.97
74923;HTU21D;64715;44.760;37.678;2023-07-24T02:30:40;21.94;83.25
74923;HTU21D;64715;44.760;37.678;2023-07-24T02:31:42;22.02;83.10
74923;HTU21D;64715;44.760;37.678;2023-07-24T02:32:45;22.16;83.09
74923;HTU21D;64715;44.760;37.678;2023-07-24T02:33:46;22.25;83.01
74923;HTU21D;64715;44.760;37.678;2023-07-24T02:34:49;22.38;82.94
74923;HTU21D;64715;44.760;37.678;2023-07-24T02:35:52;22.51;82.79
74923;HTU21D;64715;44.760;37.678;2023-07-24T02:36:53;22.66;82.59
74923;HTU21D;64715;44.760;37.678;2023-07-24T02:37:54;22.81;82.39
74923;HTU21D;64715;44.760;37.678;2023-07-24T02:38:55;22.95;82.28
74923;HTU21D;64715;44.760;37.678;2023-07-24T02:39:56;23.13;82.01
74923;HTU21D;64715;44.760;37.678;2023-07-24T02:40:57;23.32;81.73
74923;HTU21D;64715;44.760;37.678;2023-07-24T02:41:58;23.50;81.37
74923;HTU21D;64715;44.760;37.678;2023-07-24T02:42:59;23.70;80.90
74923;HTU21D;64715;44.760;37.678;2023-07-24T02:44:02;23.87;80.60
74923;HTU21D;64715;44.760;37.678;2023-07-24T02:45:05;24.11;80.20
74923;HTU21D;64715;44.760;37.678;2023-07-24T02:46:11;24.33;79.71
74923;HTU21D;64715;44.760;37.678;2023-07-24T02:47:13;24.57;79.29
74923;HTU21D;64715;44.760;37.678;2023-07-24T02:48:14;24.78;78.75
74923;HTU21D;64715;44.760;37.678;2023-07-24T02:49:15;25.02;78.24
74923;HTU21D;64715;44.760;37.678;2023-07-24T02:50:16;25.22;77.42
74923;HTU21D;64715;44.760;37.678;2023-07-24T02:51:17;25.38;76.85
74923;HTU21D;64715;44.760;37.678;2023-07-24T02:52:18;25.53;76.12
74923;HTU21D;64715;44.760;37.678;2023-07-24T02:53:19;25.63;75.26
74923;HTU21D;64715;44.760;37.678;2023-07-24T02:54:20;25.65;74.70
74923;HTU21D;64715;44.760;37.678;2023-07-24T02:55:21;25.65;74.28
74923;HTU21D;64715;44.760;37.678;2023-07-24T02:56:22;25.63;73.90
74923;HTU21D;64715;44.760;37.678;2023-07-24T02:57:23;25.59;73.54
74923;HTU21D;64715;44.760;37.678;2023-07-24T02:58:24;25.53;73.39
74923;HTU21D;64715;44.760;37.678;2023-07-24T02:59:26;25.47;73.30
74923;HTU21D;64715;44.760;37.678;2023-07-24T03:00:27;25.39;72.96
74923;HTU21D;64715;44.760;37.678;2023-07-24T03:01:28;25.30;72.99
74923;HTU21D;64715;44.760;37.678;2023-07-24T03:02:29;25.22;72.90
74923;HTU21D;64715;44.760;37.678;2023-07-24T03:03:30;25.14;72.71
74923;HTU21D;64715;44.760;37.678;2023-07-24T03:04:30;25.06;72.93
74923;HTU21D;64715;44.760;37.678;2023-07-24T03:05:36;24.98;72.87
74923;HTU21D;64715;44.760;37.678;2023-07-24T03:06:39;24.93;73.04
74923;HTU21D;64715;44.760;37.678;2023-07-24T03:07:40;24.90;73.18
74923;HTU21D;64715;44.760;37.678;2023-07-24T03:08:41;24.91;73.41
74923;HTU21D;64715;44.760;37.678;2023-07-24T03:09:42;24.93;73.25
74923;HTU21D;64715;44.760;37.678;2023-07-24T03:10:43;24.95;73.22
74923;HTU21D;64715;44.760;37.678;2023-07-24T03:11:44;24.99;72.99
74923;HTU21D;64715;44.760;37.678;2023-07-24T03:12:45;25.00;72.80
74923;HTU21D;64715;44.760;37.678;2023-07-24T03:13:46;24.98;72.62
74923;HTU21D;64715;44.760;37.678;2023-07-24T03:14:47;24.95;72.74
74923;HTU21D;64715;44.760;37.678;2023-07-24T03:15:52;24.99;72.91
74923;HTU21D;64715;44.760;37.678;2023-07-24T03:16:54;25.07;73.00
74923;HTU21D;64715;44.760;37.678;2023-07-24T03:17:55;25.21;72.93
74923;HTU21D;64715;44.760;37.678;2023-07-24T03:18:56;25.35;72.64
74923;HTU21D;64715;44.760;37.678;2023-07-24T03:19:57;25.48;72.27
74923;HTU21D;64715;44.760;37.678;2023-07-24T03:20:58;25.57;71.91
74923;HTU21D;64715;44.760;37.678;2023-07-24T03:22:00;25.65;71.43
74923;HTU21D;64715;44.760;37.678;2023-07-24T03:23:00;25.67;70.97
74923;HTU21D;64715;44.760;37.678;2023-07-24T03:24:03;25.71;70.81
74923;HTU21D;64715;44.760;37.678;2023-07-24T03:25:04;25.73;70.83
74923;HTU21D;64715;44.760;37.678;2023-07-24T03:26:05;25.74;70.56
74923;HTU21D;64715;44.760;37.678;2023-07-24T03:27:07;25.77;70.26
74923;HTU21D;64715;44.760;37.678;2023-07-24T03:28:09;25.76;70.06
74923;HTU21D;64715;44.760;37.678;2023-07-24T03:29:10;25.76;69.94
74923;HTU21D;64715;44.760;37.678;2023-07-24T03:30:12;25.76;69.89
74923;HTU21D;64715;44.760;37.678;2023-07-24T03:31:13;25.80;69.87
74923;HTU21D;64715;44.760;37.678;2023-07-24T03:32:14;25.83;69.73
74923;HTU21D;64715;44.760;37.678;2023-07-24T03:33:16;25.93;70.03
74923;HTU21D;64715;44.760;37.678;2023-07-24T03:34:17;26.11;70.01
74923;HTU21D;64715;44.760;37.678;2023-07-24T03:35:18;26.33;69.70
74923;HTU21D;64715;44.760;37.678;2023-07-24T03:36:19;26.57;69.41
74923;HTU21D;64715;44.760;37.678;2023-07-24T03:37:20;26.89;69.00
74923;HTU21D;64715;44.760;37.678;2023-07-24T03:38:20;27.26;68.52
74923;HTU21D;64715;44.760;37.678;2023-07-24T03:39:21;27.68;67.85
74923;HTU21D;64715;44.760;37.678;2023-07-24T03:40:22;28.12;66.93
74923;HTU21D;64715;44.760;37.678;2023-07-24T03:41:23;28.53;65.78
74923;HTU21D;64715;44.760;37.678;2023-07-24T03:42:29;28.84;64.46
74923;HTU21D;64715;44.760;37.678;2023-07-24T03:43:31;29.04;63.54
74923;HTU21D;64715;44.760;37.678;2023-07-24T03:44:33;29.07;62.60
74923;HTU21D;64715;44.760;37.678;2023-07-24T03:45:35;29.08;62.37
74923;HTU21D;64715;44.760;37.678;2023-07-24T03:46:36;29.09;61.74
74923;HTU21D;64715;44.760;37.678;2023-07-24T03:47:39;28.97;61.21
74923;HTU21D;64715;44.760;37.678;2023-07-24T03:48:42;28.79;60.93
74923;HTU21D;64715;44.760;37.678;2023-07-24T03:49:43;28.61;60.88
74923;HTU21D;64715;44.760;37.678;2023-07-24T03:50:44;28.44;61.05
74923;HTU21D;64715;44.760;37.678;2023-07-24T03:51:46;28.29;61.23
74923;HTU21D;64715;44.760;37.678;2023-07-24T03:52:47;28.16;61.28
74923;HTU21D;64715;44.760;37.678;2023-07-24T03:53:48;28.02;61.22
74923;HTU21D;64715;44.760;37.678;2023-07-24T03:54:51;27.93;61.24
74923;HTU21D;64715;44.760;37.678;2023-07-24T03:55:52;27.80;61.45
74923;HTU21D;64715;44.760;37.678;2023-07-24T03:56:53;27.71;61.58
74923;HTU21D;64715;44.760;37.678;2023-07-24T03:57:54;27.61;61.82
74923;HTU21D;64715;44.760;37.678;2023-07-24T03:58:55;27.55;61.85
74923;HTU21D;64715;44.760;37.678;2023-07-24T03:59:55;27.49;61.77
74923;HTU21D;64715;44.760;37.678;2023-07-24T04:00:57;27.45;62.08
74923;HTU21D;64715;44.760;37.678;2023-07-24T04:01:58;27.51;62.16
74923;HTU21D;64715;44.760;37.678;2023-07-24T04:02:59;27.65;62.21
74923;HTU21D;64715;44.760;37.678;2023-07-24T04:04:01;27.90;62.21
74923;HTU21D;64715;44.760;37.678;2023-07-24T04:05:03;28.27;61.92
74923;HTU21D;64715;44.760;37.678;2023-07-24T04:06:04;28.70;61.30
74923;HTU21D;64715;44.760;37.678;2023-07-24T04:07:06;29.17;60.48
74923;HTU21D;64715;44.760;37.678;2023-07-24T04:08:06;29.68;59.78
74923;HTU21D;64715;44.760;37.678;2023-07-24T04:09:07;30.25;58.89
74923;HTU21D;64715;44.760;37.678;2023-07-24T04:10:08;30.85;57.58
74923;HTU21D;64715;44.760;37.678;2023-07-24T04:11:09;31.38;56.39
74923;HTU21D;64715;44.760;37.678;2023-07-24T04:12:11;31.87;54.98
74923;HTU21D;64715;44.760;37.678;2023-07-24T04:13:13;32.37;53.84
74923;HTU21D;64715;44.760;37.678;2023-07-24T04:14:14;32.84;52.91
74923;HTU21D;64715;44.760;37.678;2023-07-24T04:15:16;33.34;51.87
74923;HTU21D;64715;44.760;37.678;2023-07-24T04:16:17;33.81;50.85
74923;HTU21D;64715;44.760;37.678;2023-07-24T04:17:18;34.27;49.61
74923;HTU21D;64715;44.760;37.678;2023-07-24T04:18:19;34.60;48.22
74923;HTU21D;64715;44.760;37.678;2023-07-24T04:19:20;34.73;47.34
74923;HTU21D;64715;44.760;37.678;2023-07-24T04:20:21;34.81;46.74
74923;HTU21D;64715;44.760;37.678;2023-07-24T04:21:22;34.85;46.12
74923;HTU21D;64715;44.760;37.678;2023-07-24T04:22:24;34.79;45.56
74923;HTU21D;64715;44.760;37.678;2023-07-24T04:23:25;34.67;45.30
74923;HTU21D;64715;44.760;37.678;2023-07-24T04:24:26;34.57;45.22
74923;HTU21D;64715;44.760;37.678;2023-07-24T04:25:27;34.50;45.01
74923;HTU21D;64715;44.760;37.678;2023-07-24T04:26:28;34.45;45.14
74923;HTU21D;64715;44.760;37.678;2023-07-24T04:27:29;34.50;45.11
74923;HTU21D;64715;44.760;37.678;2023-07-24T04:28:30;34.64;44.81
74923;HTU21D;64715;44.760;37.678;2023-07-24T04:29:31;34.80;44.43
74923;HTU21D;64715;44.760;37.678;2023-07-24T04:30:32;35.04;43.91
74923;HTU21D;64715;44.760;37.678;2023-07-24T04:31:35;35.30;43.38
74923;HTU21D;64715;44.760;37.678;2023-07-24T04:32:36;35.56;42.66
74923;HTU21D;64715;44.760;37.678;2023-07-24T04:33:38;35.72;42.22
74923;HTU21D;64715;44.760;37.678;2023-07-24T04:34:39;35.92;41.98
74923;HTU21D;64715;44.760;37.678;2023-07-24T04:35:40;36.12;41.45
74923;HTU21D;64715;44.760;37.678;2023-07-24T04:36:41;36.36;41.09
74923;HTU21D;64715;44.760;37.678;2023-07-24T04:37:43;36.62;40.59
74923;HTU21D;64715;44.760;37.678;2023-07-24T04:38:44;36.77;39.78
74923;HTU21D;64715;44.760;37.678;2023-07-24T04:39:46;36.82;39.36
74923;HTU21D;64715;44.760;37.678;2023-07-24T04:40:48;36.75;39.06
74923;HTU21D;64715;44.760;37.678;2023-07-24T04:41:48;36.63;39.26
74923;HTU21D;64715;44.760;37.678;2023-07-24T04:42:50;36.60;39.11
74923;HTU21D;64715;44.760;37.678;2023-07-24T04:43:51;36.51;38.76
74923;HTU21D;64715;44.760;37.678;2023-07-24T04:44:51;36.24;38.59
74923;HTU21D;64715;44.760;37.678;2023-07-24T04:45:52;35.86;38.72
74923;HTU21D;64715;44.760;37.678;2023-07-24T04:46:53;35.44;39.16
74923;HTU21D;64715;44.760;37.678;2023-07-24T04:47:56;35.04;39.46
74923;HTU21D;64715;44.760;37.678;2023-07-24T04:48:57;34.62;40.01
74923;HTU21D;64715;44.760;37.678;2023-07-24T04:49:58;34.27;40.36
74923;HTU21D;64715;44.760;37.678;2023-07-24T04:50:59;33.86;40.68
74923;HTU21D;64715;44.760;37.678;2023-07-24T04:52:00;33.45;41.46
74923;HTU21D;64715;44.760;37.678;2023-07-24T04:53:02;33.15;41.98
74923;HTU21D;64715;44.760;37.678;2023-07-24T04:54:03;32.88;42.37
74923;HTU21D;64715;44.760;37.678;2023-07-24T04:55:04;32.72;43.06
74923;HTU21D;64715;44.760;37.678;2023-07-24T04:56:06;32.72;43.19
74923;HTU21D;64715;44.760;37.678;2023-07-24T04:57:07;32.79;43.30
74923;HTU21D;64715;44.760;37.678;2023-07-24T04:58:08;32.86;43.28
74923;HTU21D;64715;44.760;37.678;2023-07-24T04:59:09;33.02;43.02
74923;HTU21D;64715;44.760;37.678;2023-07-24T05:00:10;33.18;43.05
74923;HTU21D;64715;44.760;37.678;2023-07-24T05:01:11;33.41;42.96
74923;HTU21D;64715;44.760;37.678;2023-07-24T05:02:13;33.77;42.60
74923;HTU21D;64715;44.760;37.678;2023-07-24T05:03:14;34.05;41.67
74923;HTU21D;64715;44.760;37.678;2023-07-24T05:04:17;34.21;41.42
74923;HTU21D;64715;44.760;37.678;2023-07-24T05:05:19;34.22;40.78
74923;HTU21D;64715;44.760;37.678;2023-07-24T05:06:20;34.03;40.65
74923;HTU21D;64715;44.760;37.678;2023-07-24T05:07:21;33.72;40.95
74923;HTU21D;64715;44.760;37.678;2023-07-24T05:08:22;33.46;41.52
74923;HTU21D;64715;44.760;37.678;2023-07-24T05:09:23;33.41;41.65
74923;HTU21D;64715;44.760;37.678;2023-07-24T05:10:24;33.41;41.66
74923;HTU21D;64715;44.760;37.678;2023-07-24T05:11:25;33.49;41.69
74923;HTU21D;64715;44.760;37.678;2023-07-24T05:12:26;33.70;41.74
74923;HTU21D;64715;44.760;37.678;2023-07-24T05:13:27;33.96;41.63
74923;HTU21D;64715;44.760;37.678;2023-07-24T05:14:29;34.30;40.98
74923;HTU21D;64715;44.760;37.678;2023-07-24T05:15:30;34.62;40.42
74923;HTU21D;64715;44.760;37.678;2023-07-24T05:16:31;34.91;40.13
74923;HTU21D;64715;44.760;37.678;2023-07-24T05:17:33;35.23;39.62
74923;HTU21D;64715;44.760;37.678;2023-07-24T05:18:34;35.49;38.95
74923;HTU21D;64715;44.760;37.678;2023-07-24T05:19:35;35.69;38.43
74923;HTU21D;64715;44.760;37.678;2023-07-24T05:20:36;35.81;37.91
74923;HTU21D;64715;44.760;37.678;2023-07-24T05:21:37;35.81;37.40
74923;HTU21D;64715;44.760;37.678;2023-07-24T05:22:38;35.78;37.53
74923;HTU21D;64715;44.760;37.678;2023-07-24T05:23:39;35.77;37.62
74923;HTU21D;64715;44.760;37.678;2023-07-24T05:24:40;35.77;37.49
74923;HTU21D;64715;44.760;37.678;2023-07-24T05:25:41;35.72;37.43
74923;HTU21D;64715;44.760;37.678;2023-07-24T05:26:42;35.63;37.17
74923;HTU21D;64715;44.760;37.678;2023-07-24T05:27:43;35.50;37.17
74923;HTU21D;64715;44.760;37.678;2023-07-24T05:28:44;35.35;37.32
74923;HTU21D;64715;44.760;37.678;2023-07-24T05:29:46;35.10;37.23
74923;HTU21D;64715;44.760;37.678;2023-07-24T05:30:47;34.83;37.50
74923;HTU21D;64715;44.760;37.678;2023-07-24T05:31:48;34.53;37.82
74923;HTU21D;64715;44.760;37.678;2023-07-24T05:32:49;34.21;38.17
74923;HTU21D;64715;44.760;37.678;2023-07-24T05:33:50;33.89;38.41
74923;HTU21D;64715;44.760;37.678;2023-07-24T05:34:51;33.56;38.83
74923;HTU21D;64715;44.760;37.678;2023-07-24T05:35:52;33.28;39.20
74923;HTU21D;64715;44.760;37.678;2023-07-24T05:36:57;32.97;39.68
74923;HTU21D;64715;44.760;37.678;2023-07-24T05:37:58;32.74;40.17
74923;HTU21D;64715;44.760;37.678;2023-07-24T05:39:00;32.53;40.62
74923;HTU21D;64715;44.760;37.678;2023-07-24T05:40:01;32.31;40.99
74923;HTU21D;64715;44.760;37.678;2023-07-24T05:41:03;32.16;41.42
74923;HTU21D;64715;44.760;37.678;2023-07-24T05:42:04;32.05;41.91
74923;HTU21D;64715;44.760;37.678;2023-07-24T05:43:05;32.04;42.26
74923;HTU21D;64715;44.760;37.678;2023-07-24T05:44:06;32.13;42.73
74923;HTU21D;64715;44.760;37.678;2023-07-24T05:45:08;32.30;42.93
74923;HTU21D;64715;44.760;37.678;2023-07-24T05:46:09;32.50;42.98
74923;HTU21D;64715;44.760;37.678;2023-07-24T05:47:10;32.75;42.81
74923;HTU21D;64715;44.760;37.678;2023-07-24T05:48:12;32.94;42.12
74923;HTU21D;64715;44.760;37.678;2023-07-24T05:49:13;33.00;41.34
74923;HTU21D;64715;44.760;37.678;2023-07-24T05:50:14;32.90;41.29
74923;HTU21D;64715;44.760;37.678;2023-07-24T05:51:15;32.77;41.33
74923;HTU21D;64715;44.760;37.678;2023-07-24T05:52:16;32.64;41.55
74923;HTU21D;64715;44.760;37.678;2023-07-24T05:53:17;32.50;41.42
74923;HTU21D;64715;44.760;37.678;2023-07-24T05:54:18;32.32;41.32
74923;HTU21D;64715;44.760;37.678;2023-07-24T05:55:19;32.13;41.58
74923;HTU21D;64715;44.760;37.678;2023-07-24T05:56:20;31.96;41.87
74923;HTU21D;64715;44.760;37.678;2023-07-24T05:57:21;31.82;42.17
74923;HTU21D;64715;44.760;37.678;2023-07-24T05:58:22;31.70;42.40
74923;HTU21D;64715;44.760;37.678;2023-07-24T05:59:23;31.60;42.64
74923;HTU21D;64715;44.760;37.678;2023-07-24T06:00:24;31.53;43.04
74923;HTU21D;64715;44.760;37.678;2023-07-24T06:01:25;31.51;43.50
74923;HTU21D;64715;44.760;37.678;2023-07-24T06:02:26;31.56;43.72
74923;HTU21D;64715;44.760;37.678;2023-07-24T06:03:27;31.60;43.88
74923;HTU21D;64715;44.760;37.678;2023-07-24T06:04:28;31.71;43.75
74923;HTU21D;64715;44.760;37.678;2023-07-24T06:05:29;31.82;43.49
74923;HTU21D;64715;44.760;37.678;2023-07-24T06:06:30;31.88;43.42
74923;HTU21D;64715;44.760;37.678;2023-07-24T06:07:31;31.95;42.98
74923;HTU21D;64715;44.760;37.678;2023-07-24T06:08:31;31.94;42.96
74923;HTU21D;64715;44.760;37.678;2023-07-24T06:09:34;31.90;42.74
74923;HTU21D;64715;44.760;37.678;2023-07-24T06:10:35;31.87;43.05
74923;HTU21D;64715;44.760;37.678;2023-07-24T06:11:36;31.86;43.13
74923;HTU21D;64715;44.760;37.678;2023-07-24T06:12:38;31.87;42.83
74923;HTU21D;64715;44.760;37.678;2023-07-24T06:13:39;31.86;42.80
74923;HTU21D;64715;44.760;37.678;2023-07-24T06:14:40;31.86;42.72
74923;HTU21D;64715;44.760;37.678;2023-07-24T06:15:41;31.87;42.88
74923;HTU21D;64715;44.760;37.678;2023-07-24T06:16:42;31.89;42.88
74923;HTU21D;64715;44.760;37.678;2023-07-24T06:17:43;31.94;42.65
74923;HTU21D;64715;44.760;37.678;2023-07-24T06:18:44;31.95;42.36
74923;HTU21D;64715;44.760;37.678;2023-07-24T06:19:45;31.95;41.76
74923;HTU21D;64715;44.760;37.678;2023-07-24T06:20:47;31.84;41.61
74923;HTU21D;64715;44.760;37.678;2023-07-24T06:21:50;31.70;41.81
74923;HTU21D;64715;44.760;37.678;2023-07-24T06:22:51;31.55;41.79